OEMA

Prince Mohammad Bin Abdulaziz Airport

Medina, Saudi Arabia
TAF OEMA 211700Z 2118/2224 33012KT 7000 SCT045 SCT100 BECMG 2200/2202 04008G18KT TEMPO 2200/2206 4000 DU BLDU
Issued Valid From Valid To
Jun-21 @ 17:00 UTC
(an hour ago)
Jun-21 @ 18:00 UTC
(5 minutes ago)
Jun-23 @ 00:00 UTC
(-1 days ago)
Jun-21 @ 18:00 to Jun-22 @ 00:00
TAF OEMA 211700Z 2118/2224 33012KT 7000 SCT045 SCT100
Wind Visibility Clouds
330° at 12 knots 7,001 meters
  • Scattered at 4,500' AGL
  • Scattered at 10,000' AGL
Temporary Jun-22 @ 00:00 to Jun-22 @ 06:00
TEMPO 2200/2206 4000 DU BLDU
Visibility Conditions
4,007 meters
  • Dust
  • Blowing
  • Dust
Becoming Jun-22 @ 00:00 to Jun-23 @ 00:00
BECMG 2200/2202 04008G18KT
Wind Visibility Clouds
40° at 8 knots
 Gusting to 18 knots
7,001 meters
  • Scattered at 4,500' AGL
  • Scattered at 10,000' AGL
TAF OEMA 211700Z 2118/2224 33012KT 7000 SCT045 SCT100 BECMG 2200/2202 04008G18KT TEMPO 2200/2206 4000 DU BLDU
Issued Jun-21 @ 17:00 UTC
(an hour ago)
Valid From Jun-21 @ 18:00 UTC
(5 minutes ago)
Valid To Jun-23 @ 00:00 UTC
(-1 days ago)
Jun-21 @ 18:00 - Jun-22 @ 00:00
Wind Visibility
330° at 12 knots 7,001 meters
Clouds
  • Scattered at 4,500' AGL
  • Scattered at 10,000' AGL
Temporary Jun-22 @ 00:00 - Jun-22 @ 06:00
Conditions
  • Dust
  • Blowing
  • Dust
Becoming Jun-22 @ 00:00 - Jun-23 @ 00:00
Wind Visibility
40° at 8 knots
 Gusting to 18 knots
7,001 meters
Clouds
  • Scattered at 4,500' AGL
  • Scattered at 10,000' AGL